createdAt,value
2023-05-06T00:02:02.390Z,100374.03
2023-05-06T00:05:06.014Z,100378.19
2023-05-06T00:08:08.647Z,100376.03
2023-05-06T00:11:13.798Z,100375.09
2023-05-06T00:14:17.534Z,100371.19
2023-05-06T00:17:20.128Z,100365.97
2023-05-06T00:20:24.038Z,100369.03
2023-05-06T00:23:27.358Z,100369.13
2023-05-06T00:26:30.405Z,100372.63
2023-05-06T00:29:32.838Z,100369.41
2023-05-06T00:32:36.638Z,100376.19
2023-05-06T00:35:40.814Z,100372.03
2023-05-06T00:38:43.490Z,100366.81
2023-05-06T00:41:47.281Z,100374.72
2023-05-06T00:44:50.407Z,100376.41
2023-05-06T00:47:53.196Z,100374.72
2023-05-06T00:50:56.026Z,100379.37
2023-05-06T00:53:59.770Z,100376.94
2023-05-06T00:57:04.161Z,100370.06
2023-05-06T01:00:12.614Z,100370.09
2023-05-06T01:03:14.963Z,100369.25
2023-05-06T01:06:32.823Z,100375.78
2023-05-06T01:09:57.034Z,100371.63
2023-05-06T01:13:10.434Z,100363.88
2023-05-06T01:16:16.614Z,100369.00
2023-05-06T01:19:33.429Z,100370.19
2023-05-06T01:22:37.529Z,100367.00
2023-05-06T01:25:46.291Z,100365.19
2023-05-06T01:28:50.730Z,100360.56
2023-05-06T01:32:00.531Z,100357.44
2023-05-06T01:35:15.728Z,100362.69
2023-05-06T01:38:36.286Z,100356.16
2023-05-06T01:41:42.632Z,100354.47
2023-05-06T01:44:48.401Z,100358.87
2023-05-06T01:47:51.329Z,100354.97
2023-05-06T01:50:56.057Z,100354.50
2023-05-06T01:54:04.925Z,100356.66
2023-05-06T01:57:08.077Z,100359.41
2023-05-06T02:00:13.695Z,100355.59
2023-05-06T02:03:23.703Z,100352.87
2023-05-06T02:06:29.715Z,100352.28
2023-05-06T02:09:31.864Z,100354.09
2023-05-06T02:12:39.408Z,100357.03
2023-05-06T02:15:43.377Z,100354.66
2023-05-06T02:18:48.179Z,100356.44
2023-05-06T02:21:51.162Z,100357.16
2023-05-06T02:24:53.885Z,100345.72
2023-05-06T02:27:56.577Z,100345.75
2023-05-06T02:30:59.773Z,100346.31
2023-05-06T02:34:03.148Z,100352.63
2023-05-06T02:37:06.216Z,100354.09
2023-05-06T02:40:13.352Z,100356.47
2023-05-06T02:43:31.316Z,100356.19
2023-05-06T02:46:34.967Z,100352.06
2023-05-06T02:49:43.622Z,100357.88
2023-05-06T02:52:49.432Z,100353.59
2023-05-06T02:55:52.987Z,100356.56
2023-05-06T02:58:57.306Z,100363.13
2023-05-06T03:02:05.889Z,100367.03
2023-05-06T03:05:10.417Z,100365.50
2023-05-06T03:08:18.890Z,100362.03
2023-05-06T03:11:22.381Z,100363.00
2023-05-06T03:14:27.128Z,100355.37
2023-05-06T03:17:31.986Z,100353.94
2023-05-06T03:20:34.518Z,100361.78
2023-05-06T03:23:37.325Z,100360.84
2023-05-06T03:26:40.548Z,100364.53
2023-05-06T03:29:43.999Z,100359.31
2023-05-06T03:32:48.924Z,100350.62
2023-05-06T03:35:54.322Z,100346.13
2023-05-06T03:39:01.707Z,100344.44
2023-05-06T03:42:06.459Z,100351.69
2023-05-06T03:45:15.469Z,100348.00
2023-05-06T03:48:17.970Z,100353.47
2023-05-06T03:51:24.390Z,100354.16
2023-05-06T03:54:28.035Z,100355.75
2023-05-06T03:57:37.442Z,100353.69
2023-05-06T04:00:42.604Z,100365.03
2023-05-06T04:03:45.392Z,100360.47
2023-05-06T04:06:49.137Z,100363.50
2023-05-06T04:09:58.680Z,100372.66
2023-05-06T04:13:05.081Z,100377.50
2023-05-06T04:16:15.886Z,100372.41
2023-05-06T04:19:22.881Z,100373.94
2023-05-06T04:22:27.947Z,100371.22
2023-05-06T04:25:34.087Z,100374.03
2023-05-06T04:28:41.111Z,100368.50
2023-05-06T04:31:48.143Z,100375.03
2023-05-06T04:34:53.664Z,100383.09
2023-05-06T04:37:59.869Z,100387.28
2023-05-06T04:41:08.810Z,100388.88
2023-05-06T04:44:13.298Z,100385.94
2023-05-06T04:47:17.269Z,100393.37
2023-05-06T04:50:22.694Z,100387.13
2023-05-06T04:53:25.749Z,100385.50
2023-05-06T04:56:35.039Z,100388.22
2023-05-06T04:59:40.294Z,100392.97
2023-05-06T05:02:46.121Z,100402.97
2023-05-06T05:05:49.218Z,100406.72
2023-05-06T05:08:53.429Z,100408.84
2023-05-06T05:12:01.063Z,100414.31
2023-05-06T05:15:04.766Z,100415.78
2023-05-06T05:18:07.318Z,100421.16
2023-05-06T05:21:11.455Z,100412.38
2023-05-06T05:24:18.398Z,100416.75
2023-05-06T05:27:23.439Z,100417.19
2023-05-06T05:30:31.470Z,100420.97
2023-05-06T05:33:36.924Z,100420.47
2023-05-06T05:36:41.365Z,100417.06
2023-05-06T05:39:44.864Z,100412.63
2023-05-06T05:42:47.142Z,100413.13
2023-05-06T05:45:49.722Z,100402.81
2023-05-06T05:48:55.681Z,100411.25
2023-05-06T05:52:01.291Z,100413.63
2023-05-06T05:55:08.394Z,100410.06
2023-05-06T05:58:14.161Z,100415.19
2023-05-06T06:01:16.962Z,100420.84
2023-05-06T06:04:19.327Z,100418.44
2023-05-06T06:07:23.395Z,100421.69
2023-05-06T06:10:25.732Z,100413.78
2023-05-06T06:13:29.964Z,100421.34
2023-05-06T06:16:32.762Z,100412.75
2023-05-06T06:19:35.363Z,100422.69
2023-05-06T06:22:38.892Z,100414.59
2023-05-06T06:25:48.395Z,100422.22
2023-05-06T06:28:53.788Z,100420.56
2023-05-06T06:31:58.503Z,100413.94
2023-05-06T06:35:01.242Z,100414.50
2023-05-06T06:38:04.145Z,100412.06
2023-05-06T06:41:08.429Z,100423.50
2023-05-06T06:44:13.255Z,100414.41
2023-05-06T06:47:19.250Z,100414.72
2023-05-06T06:50:24.815Z,100411.00
2023-05-06T06:53:29.728Z,100416.31
2023-05-06T06:56:32.217Z,100412.38
2023-05-06T06:59:38.362Z,100405.50
2023-05-06T07:02:43.368Z,100405.97
2023-05-06T07:05:47.127Z,100403.97
2023-05-06T07:08:50.547Z,100400.44
2023-05-06T07:11:54.047Z,100409.87
2023-05-06T07:14:59.174Z,100410.00
2023-05-06T07:18:03.334Z,100419.56
2023-05-06T07:21:05.716Z,100421.84
2023-05-06T07:24:08.252Z,100420.09
2023-05-06T07:27:11.894Z,100438.22
2023-05-06T07:30:15.341Z,100442.16
2023-05-06T07:33:19.072Z,100438.41
2023-05-06T07:36:23.175Z,100445.53
2023-05-06T07:39:28.829Z,100437.88
2023-05-06T07:42:32.139Z,100439.34
2023-05-06T07:45:39.130Z,100437.16
2023-05-06T07:48:41.495Z,100436.13
2023-05-06T07:51:44.398Z,100439.16
2023-05-06T07:54:47.384Z,100441.00
2023-05-06T07:57:52.216Z,100439.66
2023-05-06T08:00:56.744Z,100430.00
2023-05-06T08:04:06.581Z,100437.44
2023-05-06T08:07:10.306Z,100433.37
2023-05-06T08:10:12.775Z,100436.38
2023-05-06T08:13:15.899Z,100433.63
2023-05-06T08:16:19.699Z,100427.03
2023-05-06T08:19:24.820Z,100436.06
2023-05-06T08:22:27.960Z,100430.31
2023-05-06T08:25:31.782Z,100428.22
2023-05-06T08:28:35.367Z,100432.53
2023-05-06T08:31:41.216Z,100428.19
2023-05-06T08:34:45.575Z,100428.44
2023-05-06T08:37:48.016Z,100429.34
2023-05-06T08:40:53.558Z,100431.81
2023-05-06T08:43:58.214Z,100428.94
2023-05-06T08:47:02.102Z,100415.56
2023-05-06T08:50:05.688Z,100427.09
2023-05-06T08:53:10.815Z,100419.56
2023-05-06T08:56:14.885Z,100411.19
2023-05-06T08:59:19.597Z,100407.41
2023-05-06T09:02:23.019Z,100404.97
2023-05-06T09:05:25.976Z,100412.25
2023-05-06T09:08:28.675Z,100408.50
2023-05-06T09:11:31.620Z,100404.31
2023-05-06T09:14:34.640Z,100405.03
2023-05-06T09:17:37.705Z,100411.28
2023-05-06T09:20:44.725Z,100404.78
2023-05-06T09:23:47.732Z,100399.63
2023-05-06T09:26:52.350Z,100388.00
2023-05-06T09:30:04.732Z,100391.97
2023-05-06T09:33:08.626Z,100397.19
2023-05-06T09:36:13.626Z,100389.16
2023-05-06T09:39:16.722Z,100385.38
2023-05-06T09:42:19.305Z,100380.03
2023-05-06T09:45:22.027Z,100389.09
2023-05-06T09:48:24.981Z,100390.31
2023-05-06T09:51:30.178Z,100369.16
2023-05-06T09:54:33.525Z,100368.81
2023-05-06T09:57:37.747Z,100361.94
2023-05-06T10:00:40.093Z,100365.25
2023-05-06T10:03:43.341Z,100371.34
2023-05-06T10:06:49.685Z,100361.22
2023-05-06T10:09:54.450Z,100353.53
2023-05-06T10:12:57.864Z,100347.91
2023-05-06T10:16:02.170Z,100352.47
2023-05-06T10:19:07.526Z,100339.09
2023-05-06T10:22:19.088Z,100342.09
2023-05-06T10:25:22.050Z,100340.41
2023-05-06T10:28:30.468Z,100329.59
2023-05-06T10:31:35.290Z,100322.78
2023-05-06T10:34:41.699Z,100321.16
2023-05-06T10:37:45.906Z,100324.66
2023-05-06T10:40:49.823Z,100321.31
2023-05-06T10:44:00.717Z,100318.03
2023-05-06T10:47:04.087Z,100319.06
2023-05-06T10:50:20.622Z,100309.59
2023-05-06T10:53:42.832Z,100312.09
2023-05-06T10:56:46.434Z,100304.28
2023-05-06T10:59:49.927Z,100304.47
2023-05-06T11:02:58.340Z,100302.38
2023-05-06T11:06:02.059Z,100305.22
2023-05-06T11:09:16.915Z,100295.34
2023-05-06T11:12:21.130Z,100290.00
2023-05-06T11:15:41.989Z,100289.81
2023-05-06T11:18:45.803Z,100289.19
2023-05-06T11:21:49.444Z,100296.59
2023-05-06T11:24:53.257Z,100293.16
2023-05-06T11:27:56.449Z,100288.06
2023-05-06T11:31:01.070Z,100296.69
2023-05-06T11:34:07.672Z,100297.87
2023-05-06T11:37:11.415Z,100298.03
2023-05-06T11:40:16.472Z,100297.13
2023-05-06T11:43:19.872Z,100291.63
2023-05-06T11:46:23.708Z,100301.13
2023-05-06T11:49:28.161Z,100301.16
2023-05-06T11:52:33.414Z,100301.37
2023-05-06T11:55:36.973Z,100292.78
2023-05-06T11:58:40.468Z,100295.19
2023-05-06T12:01:45.301Z,100295.06
2023-05-06T12:04:49.095Z,100302.66
2023-05-06T12:07:52.403Z,100292.91
2023-05-06T12:10:56.453Z,100295.47
2023-05-06T12:13:59.929Z,100292.56
2023-05-06T12:17:02.913Z,100294.19
2023-05-06T12:20:06.192Z,100294.59
2023-05-06T12:23:13.190Z,100288.22
2023-05-06T12:26:15.885Z,100286.94
2023-05-06T12:29:18.881Z,100287.66
2023-05-06T12:32:23.300Z,100284.31
2023-05-06T12:35:30.180Z,100278.75
2023-05-06T12:38:33.027Z,100278.94
2023-05-06T12:41:37.362Z,100278.28
2023-05-06T12:44:41.003Z,100271.91
2023-05-06T12:47:52.954Z,100273.34
2023-05-06T12:50:55.681Z,100269.16
2023-05-06T12:53:59.010Z,100274.84
2023-05-06T12:57:01.938Z,100265.16
2023-05-06T13:00:07.866Z,100262.44
2023-05-06T13:03:11.786Z,100268.81
2023-05-06T13:06:16.608Z,100261.47
2023-05-06T13:09:20.835Z,100264.88
2023-05-06T13:12:23.608Z,100259.25
2023-05-06T13:15:26.701Z,100264.31
2023-05-06T13:18:29.990Z,100264.88
2023-05-06T13:21:32.482Z,100262.19
2023-05-06T13:24:35.684Z,100264.94
2023-05-06T13:27:40.922Z,100266.63
2023-05-06T13:30:44.124Z,100257.56
2023-05-06T13:33:48.333Z,100260.03
2023-05-06T13:36:54.992Z,100255.56
2023-05-06T13:39:58.122Z,100258.94
2023-05-06T13:43:02.014Z,100260.31
2023-05-06T13:46:05.675Z,100267.09
2023-05-06T13:49:09.121Z,100279.47
2023-05-06T13:52:12.860Z,100269.94
2023-05-06T13:55:16.456Z,100259.59
2023-05-06T13:58:21.247Z,100268.53
2023-05-06T14:01:24.235Z,100265.34
2023-05-06T14:04:27.192Z,100268.53
2023-05-06T14:07:30.011Z,100254.91
2023-05-06T14:10:33.523Z,100258.50
2023-05-06T14:13:38.132Z,100248.31
2023-05-06T14:16:41.169Z,100244.63
2023-05-06T14:19:44.018Z,100254.28
2023-05-06T14:22:46.755Z,100258.38
2023-05-06T14:25:50.193Z,100254.63
2023-05-06T14:28:53.129Z,100244.13
2023-05-06T14:31:56.451Z,100243.03
2023-05-06T14:35:00.956Z,100238.31
2023-05-06T14:38:04.461Z,100230.72
2023-05-06T14:41:07.652Z,100230.25
2023-05-06T14:44:10.987Z,100228.97
2023-05-06T14:47:13.461Z,100236.75
2023-05-06T14:50:16.259Z,100230.66
2023-05-06T14:53:19.024Z,100231.16
2023-05-06T14:56:21.555Z,100222.72
2023-05-06T14:59:24.734Z,100228.19
2023-05-06T15:02:28.060Z,100225.19
2023-05-06T15:05:30.744Z,100215.03
2023-05-06T15:08:33.789Z,100211.19
2023-05-06T15:11:37.371Z,100209.69
2023-05-06T15:14:42.404Z,100217.78
2023-05-06T15:17:45.912Z,100223.59
2023-05-06T15:20:49.311Z,100221.13
2023-05-06T15:23:52.189Z,100215.38
2023-05-06T15:26:56.111Z,100219.53
2023-05-06T15:29:59.481Z,100209.81
2023-05-06T15:33:03.536Z,100204.53
2023-05-06T15:36:07.351Z,100197.94
2023-05-06T15:39:11.560Z,100209.00
2023-05-06T15:42:14.905Z,100210.00
2023-05-06T15:45:18.082Z,100211.50
2023-05-06T15:48:21.581Z,100209.50
2023-05-06T15:51:25.272Z,100202.87
2023-05-06T15:54:28.242Z,100199.75
2023-05-06T15:57:31.763Z,100206.03
2023-05-06T16:00:34.960Z,100204.50
2023-05-06T16:03:39.190Z,100204.62
2023-05-06T16:06:42.275Z,100197.59
2023-05-06T16:09:45.161Z,100206.34
2023-05-06T16:12:49.218Z,100200.75
2023-05-06T16:15:52.403Z,100195.06
2023-05-06T16:18:55.584Z,100198.84
2023-05-06T16:21:58.609Z,100199.91
2023-05-06T16:25:01.495Z,100200.34
2023-05-06T16:28:04.921Z,100207.28
2023-05-06T16:31:07.863Z,100205.72
2023-05-06T16:34:10.335Z,100203.56
2023-05-06T16:37:14.909Z,100207.47
2023-05-06T16:40:19.122Z,100207.72
2023-05-06T16:43:22.005Z,100210.16
2023-05-06T16:46:30.423Z,100213.34
2023-05-06T16:49:36.857Z,100214.56
2023-05-06T16:52:39.043Z,100218.88
2023-05-06T16:55:50.091Z,100220.88
2023-05-06T16:58:54.860Z,100219.91
2023-05-06T17:01:59.589Z,100222.03
2023-05-06T17:05:01.897Z,100220.22
2023-05-06T17:08:04.528Z,100218.25
2023-05-06T17:11:11.134Z,100216.44
2023-05-06T17:14:16.976Z,100211.50
2023-05-06T17:17:21.445Z,100211.16
2023-05-06T17:20:24.550Z,100209.53
2023-05-06T17:23:27.682Z,100211.50
2023-05-06T17:26:34.374Z,100199.91
2023-05-06T17:29:38.680Z,100203.56
2023-05-06T17:32:42.841Z,100197.59
2023-05-06T17:35:45.947Z,100201.41
2023-05-06T17:38:48.576Z,100202.06
2023-05-06T17:41:54.637Z,100197.47
2023-05-06T17:45:00.504Z,100196.44
2023-05-06T17:48:05.667Z,100187.03
2023-05-06T17:51:09.625Z,100187.97
2023-05-06T17:54:13.117Z,100197.03
2023-05-06T17:57:16.353Z,100198.19
2023-05-06T18:00:21.556Z,100195.88
2023-05-06T18:03:26.554Z,100195.53
2023-05-06T18:06:30.088Z,100193.22
2023-05-06T18:09:33.450Z,100199.50
2023-05-06T18:12:37.182Z,100203.97
2023-05-06T18:15:42.350Z,100206.91
2023-05-06T18:18:47.474Z,100210.88
2023-05-06T18:21:50.640Z,100209.38
2023-05-06T18:24:56.342Z,100214.81
2023-05-06T18:27:58.922Z,100222.75
2023-05-06T18:31:04.621Z,100227.19
2023-05-06T18:34:08.742Z,100227.19
2023-05-06T18:37:11.349Z,100225.88
2023-05-06T18:40:17.586Z,100225.88
2023-05-06T18:43:23.566Z,100221.56
2023-05-06T18:46:28.159Z,100223.41
2023-05-06T18:49:31.373Z,100227.37
2023-05-06T18:52:37.031Z,100220.59
2023-05-06T18:55:39.625Z,100221.88
2023-05-06T18:58:43.113Z,100221.41
2023-05-06T19:01:55.008Z,100218.72
2023-05-06T19:05:00.205Z,100227.13
2023-05-06T19:08:06.335Z,100230.94
2023-05-06T19:11:15.488Z,100231.22
2023-05-06T19:14:18.689Z,100237.47
2023-05-06T19:17:23.585Z,100235.66
2023-05-06T19:20:26.295Z,100237.94
2023-05-06T19:23:31.042Z,100234.59
2023-05-06T19:26:35.236Z,100242.22
2023-05-06T19:29:39.386Z,100252.91
2023-05-06T19:32:45.380Z,100260.41
2023-05-06T19:35:48.212Z,100257.25
2023-05-06T19:38:50.537Z,100267.50
2023-05-06T19:41:55.651Z,100260.09
2023-05-06T19:44:57.703Z,100274.34
2023-05-06T19:48:00.641Z,100275.84
2023-05-06T19:51:04.174Z,100271.56
2023-05-06T19:54:06.532Z,100278.78
2023-05-06T19:57:09.749Z,100285.44
2023-05-06T20:00:14.476Z,100287.28
2023-05-06T20:03:17.158Z,100291.97
2023-05-06T20:06:20.141Z,100294.94
2023-05-06T20:09:23.450Z,100290.50
2023-05-06T20:12:29.854Z,100285.59
2023-05-06T20:15:37.657Z,100286.22
2023-05-06T20:18:42.871Z,100270.97
2023-05-06T20:21:48.513Z,100276.06
2023-05-06T20:24:52.051Z,100269.78
2023-05-06T20:28:00.464Z,100262.72
2023-05-06T20:31:03.342Z,100267.53
2023-05-06T20:34:07.054Z,100255.84
2023-05-06T20:37:10.894Z,100248.41
2023-05-06T20:40:14.611Z,100242.31
2023-05-06T20:43:16.962Z,100242.62
2023-05-06T20:46:21.139Z,100245.44
2023-05-06T20:49:24.152Z,100234.53
2023-05-06T20:52:31.342Z,100228.13
2023-05-06T20:55:34.027Z,100220.19
2023-05-06T20:58:38.765Z,100225.53
2023-05-06T21:01:41.595Z,100235.25
2023-05-06T21:04:44.002Z,100236.22
2023-05-06T21:07:47.768Z,100221.88
2023-05-06T21:10:51.153Z,100224.69
2023-05-06T21:13:53.722Z,100227.31
2023-05-06T21:16:57.051Z,100227.31
2023-05-06T21:19:59.700Z,100238.03
2023-05-06T21:23:04.393Z,100240.97
2023-05-06T21:26:08.357Z,100245.22
2023-05-06T21:29:11.130Z,100246.63
2023-05-06T21:32:13.680Z,100240.00
2023-05-06T21:35:17.330Z,100239.34
2023-05-06T21:38:20.375Z,100238.31
2023-05-06T21:41:23.591Z,100244.66
2023-05-06T21:44:26.990Z,100242.16
2023-05-06T21:47:33.378Z,100252.22
2023-05-06T21:50:42.054Z,100251.38
2023-05-06T21:53:46.734Z,100250.63
2023-05-06T21:56:50.039Z,100260.31
2023-05-06T21:59:53.906Z,100248.84
2023-05-06T22:02:58.032Z,100261.94
2023-05-06T22:06:01.486Z,100278.22
2023-05-06T22:09:09.960Z,100279.50
2023-05-06T22:12:13.245Z,100283.88
2023-05-06T22:15:15.857Z,100280.69
2023-05-06T22:18:19.600Z,100272.03
2023-05-06T22:21:24.736Z,100266.91
2023-05-06T22:24:28.998Z,100260.22
2023-05-06T22:27:31.868Z,100254.72
2023-05-06T22:30:34.424Z,100260.16
2023-05-06T22:33:38.509Z,100256.22
2023-05-06T22:36:41.656Z,100258.09
2023-05-06T22:39:44.146Z,100257.06
2023-05-06T22:42:49.079Z,100246.81
2023-05-06T22:45:51.793Z,100246.34
2023-05-06T22:48:54.310Z,100248.16
2023-05-06T22:51:57.966Z,100244.84
2023-05-06T22:55:02.002Z,100246.81
2023-05-06T22:58:05.147Z,100243.91
2023-05-06T23:01:10.019Z,100247.25
2023-05-06T23:04:12.375Z,100250.06
2023-05-06T23:07:15.043Z,100248.28
2023-05-06T23:10:19.990Z,100244.06
2023-05-06T23:13:23.260Z,100236.47
2023-05-06T23:16:30.284Z,100247.25
2023-05-06T23:19:33.803Z,100254.84
2023-05-06T23:22:37.107Z,100246.00
2023-05-06T23:25:42.781Z,100247.59
2023-05-06T23:28:46.725Z,100247.59
2023-05-06T23:31:49.921Z,100232.22
2023-05-06T23:34:55.166Z,100240.13
2023-05-06T23:37:58.967Z,100233.94
2023-05-06T23:41:08.137Z,100224.66
2023-05-06T23:44:12.328Z,100227.06
2023-05-06T23:47:16.138Z,100231.62
2023-05-06T23:50:20.761Z,100228.59
2023-05-06T23:53:23.659Z,100231.91
2023-05-06T23:56:27.455Z,100234.16
2023-05-06T23:59:33.831Z,100233.84
